sensor_id;sensor_type;location;lat;lon;timestamp;temperature;humidity
78448;SHT31;67742;51.972;5.682;2023-07-22T00:00:11;18.4;59.8
78448;SHT31;67742;51.972;5.682;2023-07-22T00:02:42;18.4;60.1
78448;SHT31;67742;51.972;5.682;2023-07-22T00:05:13;18.4;59.8
78448;SHT31;67742;51.972;5.682;2023-07-22T00:07:41;18.4;60.2
78448;SHT31;67742;51.972;5.682;2023-07-22T00:10:11;18.4;60.2
78448;SHT31;67742;51.972;5.682;2023-07-22T00:12:39;18.4;60.5
78448;SHT31;67742;51.972;5.682;2023-07-22T00:15:09;18.4;60.4
78448;SHT31;67742;51.972;5.682;2023-07-22T00:17:39;18.4;60.4
78448;SHT31;67742;51.972;5.682;2023-07-22T00:20:09;18.4;60.7
78448;SHT31;67742;51.972;5.682;2023-07-22T00:22:41;18.4;61.1
78448;SHT31;67742;51.972;5.682;2023-07-22T00:25:11;18.4;60.9
78448;SHT31;67742;51.972;5.682;2023-07-22T00:27:41;18.4;61.0
78448;SHT31;67742;51.972;5.682;2023-07-22T00:30:13;18.4;60.7
78448;SHT31;67742;51.972;5.682;2023-07-22T00:32:41;18.4;60.8
78448;SHT31;67742;51.972;5.682;2023-07-22T00:35:10;18.4;60.9
78448;SHT31;67742;51.972;5.682;2023-07-22T00:37:40;18.3;61.1
78448;SHT31;67742;51.972;5.682;2023-07-22T00:40:11;18.3;61.2
78448;SHT31;67742;51.972;5.682;2023-07-22T00:42:40;18.3;61.1
78448;SHT31;67742;51.972;5.682;2023-07-22T00:45:10;18.3;60.6
78448;SHT31;67742;51.972;5.682;2023-07-22T00:47:38;18.3;60.8
78448;SHT31;67742;51.972;5.682;2023-07-22T00:50:08;18.3;60.7
78448;SHT31;67742;51.972;5.682;2023-07-22T00:52:37;18.3;60.7
78448;SHT31;67742;51.972;5.682;2023-07-22T00:55:07;18.2;60.8
78448;SHT31;67742;51.972;5.682;2023-07-22T00:57:36;18.2;60.9
78448;SHT31;67742;51.972;5.682;2023-07-22T01:00:07;18.2;60.8
78448;SHT31;67742;51.972;5.682;2023-07-22T01:02:38;18.2;60.9
78448;SHT31;67742;51.972;5.682;2023-07-22T01:05:08;18.2;61.0
78448;SHT31;67742;51.972;5.682;2023-07-22T01:07:38;18.1;61.3
78448;SHT31;67742;51.972;5.682;2023-07-22T01:10:07;18.1;61.2
78448;SHT31;67742;51.972;5.682;2023-07-22T01:12:37;18.1;61.4
78448;SHT31;67742;51.972;5.682;2023-07-22T01:15:07;18.1;61.5
78448;SHT31;67742;51.972;5.682;2023-07-22T01:17:37;18.1;61.7
78448;SHT31;67742;51.972;5.682;2023-07-22T01:20:07;18.0;61.7
78448;SHT31;67742;51.972;5.682;2023-07-22T01:22:37;18.0;61.9
78448;SHT31;67742;51.972;5.682;2023-07-22T01:25:07;18.0;61.9
78448;SHT31;67742;51.972;5.682;2023-07-22T01:27:36;18.0;62.3
78448;SHT31;67742;51.972;5.682;2023-07-22T01:30:07;18.0;62.4
78448;SHT31;67742;51.972;5.682;2023-07-22T01:32:37;18.0;62.6
78448;SHT31;67742;51.972;5.682;2023-07-22T01:35:07;18.0;62.8
78448;SHT31;67742;51.972;5.682;2023-07-22T01:37:38;18.0;62.8
78448;SHT31;67742;51.972;5.682;2023-07-22T01:40:08;18.0;63.0
78448;SHT31;67742;51.972;5.682;2023-07-22T01:42:39;18.0;63.0
78448;SHT31;67742;51.972;5.682;2023-07-22T01:45:09;18.0;63.2
78448;SHT31;67742;51.972;5.682;2023-07-22T01:47:39;17.9;63.2
78448;SHT31;67742;51.972;5.682;2023-07-22T01:50:09;17.9;63.4
78448;SHT31;67742;51.972;5.682;2023-07-22T01:52:38;17.9;63.7
78448;SHT31;67742;51.972;5.682;2023-07-22T01:55:07;17.9;63.5
78448;SHT31;67742;51.972;5.682;2023-07-22T01:57:37;17.9;63.8
78448;SHT31;67742;51.972;5.682;2023-07-22T02:00:07;17.9;63.7
78448;SHT31;67742;51.972;5.682;2023-07-22T02:02:37;17.9;63.8
78448;SHT31;67742;51.972;5.682;2023-07-22T02:05:07;17.9;63.8
78448;SHT31;67742;51.972;5.682;2023-07-22T02:07:36;17.9;64.0
78448;SHT31;67742;51.972;5.682;2023-07-22T02:10:07;17.9;63.7
78448;SHT31;67742;51.972;5.682;2023-07-22T02:12:38;17.9;64.1
78448;SHT31;67742;51.972;5.682;2023-07-22T02:15:09;17.9;64.0
78448;SHT31;67742;51.972;5.682;2023-07-22T02:17:38;17.9;63.9
78448;SHT31;67742;51.972;5.682;2023-07-22T02:20:07;17.9;63.9
78448;SHT31;67742;51.972;5.682;2023-07-22T02:22:37;17.9;63.9
78448;SHT31;67742;51.972;5.682;2023-07-22T02:25:07;17.9;63.7
78448;SHT31;67742;51.972;5.682;2023-07-22T02:27:36;17.9;63.8
78448;SHT31;67742;51.972;5.682;2023-07-22T02:30:07;17.9;63.7
78448;SHT31;67742;51.972;5.682;2023-07-22T02:32:39;17.9;63.8
78448;SHT31;67742;51.972;5.682;2023-07-22T02:35:10;17.9;63.8
78448;SHT31;67742;51.972;5.682;2023-07-22T02:37:39;17.9;63.7
78448;SHT31;67742;51.972;5.682;2023-07-22T02:40:09;17.9;63.8
78448;SHT31;67742;51.972;5.682;2023-07-22T02:42:40;17.9;63.7
78448;SHT31;67742;51.972;5.682;2023-07-22T02:45:09;17.9;63.7
78448;SHT31;67742;51.972;5.682;2023-07-22T02:47:39;17.9;63.8
78448;SHT31;67742;51.972;5.682;2023-07-22T02:50:08;17.9;63.9
78448;SHT31;67742;51.972;5.682;2023-07-22T02:52:37;17.8;63.7
78448;SHT31;67742;51.972;5.682;2023-07-22T02:55:10;17.8;63.9
78448;SHT31;67742;51.972;5.682;2023-07-22T02:57:40;17.8;63.9
78448;SHT31;67742;51.972;5.682;2023-07-22T03:00:11;17.8;63.9
78448;SHT31;67742;51.972;5.682;2023-07-22T03:02:44;17.8;63.9
78448;SHT31;67742;51.972;5.682;2023-07-22T03:05:13;17.8;63.8
78448;SHT31;67742;51.972;5.682;2023-07-22T03:07:41;17.8;64.1
78448;SHT31;67742;51.972;5.682;2023-07-22T03:10:10;17.8;64.2
78448;SHT31;67742;51.972;5.682;2023-07-22T03:12:41;17.8;64.1
78448;SHT31;67742;51.972;5.682;2023-07-22T03:15:10;17.7;64.1
78448;SHT31;67742;51.972;5.682;2023-07-22T03:17:40;17.7;64.1
78448;SHT31;67742;51.972;5.682;2023-07-22T03:20:11;17.7;64.3
78448;SHT31;67742;51.972;5.682;2023-07-22T03:22:43;17.7;64.4
78448;SHT31;67742;51.972;5.682;2023-07-22T03:25:14;17.7;64.9
78448;SHT31;67742;51.972;5.682;2023-07-22T03:27:44;17.7;64.7
78448;SHT31;67742;51.972;5.682;2023-07-22T03:30:14;17.7;64.6
78448;SHT31;67742;51.972;5.682;2023-07-22T03:32:45;17.6;64.8
78448;SHT31;67742;51.972;5.682;2023-07-22T03:35:14;17.6;64.7
78448;SHT31;67742;51.972;5.682;2023-07-22T03:37:43;17.6;64.9
78448;SHT31;67742;51.972;5.682;2023-07-22T03:40:14;17.6;65.1
78448;SHT31;67742;51.972;5.682;2023-07-22T03:42:45;17.6;64.9
78448;SHT31;67742;51.972;5.682;2023-07-22T03:45:15;17.6;65.2
78448;SHT31;67742;51.972;5.682;2023-07-22T03:47:44;17.6;65.3
78448;SHT31;67742;51.972;5.682;2023-07-22T03:50:14;17.6;65.6
78448;SHT31;67742;51.972;5.682;2023-07-22T03:52:42;17.6;65.7
78448;SHT31;67742;51.972;5.682;2023-07-22T03:55:12;17.6;65.6
78448;SHT31;67742;51.972;5.682;2023-07-22T03:57:41;17.6;65.6
78448;SHT31;67742;51.972;5.682;2023-07-22T04:00:11;17.6;65.3
78448;SHT31;67742;51.972;5.682;2023-07-22T04:02:40;17.6;65.2
78448;SHT31;67742;51.972;5.682;2023-07-22T04:05:10;17.6;65.5
78448;SHT31;67742;51.972;5.682;2023-07-22T04:07:39;17.5;65.6
78448;SHT31;67742;51.972;5.682;2023-07-22T04:10:09;17.5;65.6
78448;SHT31;67742;51.972;5.682;2023-07-22T04:12:37;17.5;65.4
78448;SHT31;67742;51.972;5.682;2023-07-22T04:15:07;17.5;65.6
78448;SHT31;67742;51.972;5.682;2023-07-22T04:17:36;17.5;66.1
78448;SHT31;67742;51.972;5.682;2023-07-22T04:20:05;17.5;66.1
78448;SHT31;67742;51.972;5.682;2023-07-22T04:22:35;17.5;66.2
78448;SHT31;67742;51.972;5.682;2023-07-22T04:25:05;17.5;66.1
78448;SHT31;67742;51.972;5.682;2023-07-22T04:27:35;17.5;66.6
78448;SHT31;67742;51.972;5.682;2023-07-22T04:30:04;17.5;66.5
78448;SHT31;67742;51.972;5.682;2023-07-22T04:32:34;17.5;66.7
78448;SHT31;67742;51.972;5.682;2023-07-22T04:35:03;17.5;66.9
78448;SHT31;67742;51.972;5.682;2023-07-22T04:37:33;17.5;66.8
78448;SHT31;67742;51.972;5.682;2023-07-22T04:40:02;17.5;66.7
78448;SHT31;67742;51.972;5.682;2023-07-22T04:42:33;17.5;66.8
78448;SHT31;67742;51.972;5.682;2023-07-22T04:45:01;17.5;66.8
78448;SHT31;67742;51.972;5.682;2023-07-22T04:47:29;17.5;67.0
78448;SHT31;67742;51.972;5.682;2023-07-22T04:49:58;17.5;66.9
78448;SHT31;67742;51.972;5.682;2023-07-22T04:52:27;17.5;66.8
78448;SHT31;67742;51.972;5.682;2023-07-22T04:54:55;17.5;67.2
78448;SHT31;67742;51.972;5.682;2023-07-22T04:57:24;17.5;67.1
78448;SHT31;67742;51.972;5.682;2023-07-22T04:59:52;17.5;67.1
78448;SHT31;67742;51.972;5.682;2023-07-22T05:02:21;17.5;67.1
78448;SHT31;67742;51.972;5.682;2023-07-22T05:04:50;17.6;67.6
78448;SHT31;67742;51.972;5.682;2023-07-22T05:07:18;17.6;67.3
78448;SHT31;67742;51.972;5.682;2023-07-22T05:09:48;17.6;67.3
78448;SHT31;67742;51.972;5.682;2023-07-22T05:12:18;17.6;67.3
78448;SHT31;67742;51.972;5.682;2023-07-22T05:14:47;17.6;67.3
78448;SHT31;67742;51.972;5.682;2023-07-22T05:17:16;17.6;67.3
78448;SHT31;67742;51.972;5.682;2023-07-22T05:19:45;17.6;67.3
78448;SHT31;67742;51.972;5.682;2023-07-22T05:22:15;17.6;67.4
78448;SHT31;67742;51.972;5.682;2023-07-22T05:24:44;17.6;67.2
78448;SHT31;67742;51.972;5.682;2023-07-22T05:27:12;17.7;67.7
78448;SHT31;67742;51.972;5.682;2023-07-22T05:29:41;17.7;67.7
78448;SHT31;67742;51.972;5.682;2023-07-22T05:32:12;17.7;67.8
78448;SHT31;67742;51.972;5.682;2023-07-22T05:34:43;17.7;67.9
78448;SHT31;67742;51.972;5.682;2023-07-22T05:37:11;17.8;67.8
78448;SHT31;67742;51.972;5.682;2023-07-22T05:39:40;17.8;67.6
78448;SHT31;67742;51.972;5.682;2023-07-22T05:42:10;17.8;67.5
78448;SHT31;67742;51.972;5.682;2023-07-22T05:44:39;17.8;67.5
78448;SHT31;67742;51.972;5.682;2023-07-22T05:47:08;17.9;67.5
78448;SHT31;67742;51.972;5.682;2023-07-22T05:49:37;17.9;67.2
78448;SHT31;67742;51.972;5.682;2023-07-22T05:52:07;17.9;67.0
78448;SHT31;67742;51.972;5.682;2023-07-22T05:54:35;18.0;67.1
78448;SHT31;67742;51.972;5.682;2023-07-22T05:57:05;18.0;67.3
78448;SHT31;67742;51.972;5.682;2023-07-22T05:59:35;18.0;67.1
78448;SHT31;67742;51.972;5.682;2023-07-22T06:02:04;18.0;66.9
78448;SHT31;67742;51.972;5.682;2023-07-22T06:04:33;18.1;67.0
78448;SHT31;67742;51.972;5.682;2023-07-22T06:07:01;18.1;67.2
78448;SHT31;67742;51.972;5.682;2023-07-22T06:09:30;18.1;66.8
78448;SHT31;67742;51.972;5.682;2023-07-22T06:11:59;18.2;66.7
78448;SHT31;67742;51.972;5.682;2023-07-22T06:14:27;18.2;66.9
78448;SHT31;67742;51.972;5.682;2023-07-22T06:16:56;18.2;67.0
78448;SHT31;67742;51.972;5.682;2023-07-22T06:19:24;18.3;67.1
78448;SHT31;67742;51.972;5.682;2023-07-22T06:21:53;18.3;66.4
78448;SHT31;67742;51.972;5.682;2023-07-22T06:24:21;18.4;66.2
78448;SHT31;67742;51.972;5.682;2023-07-22T06:26:50;18.4;66.0
78448;SHT31;67742;51.972;5.682;2023-07-22T06:29:18;18.4;66.0
78448;SHT31;67742;51.972;5.682;2023-07-22T06:31:46;18.4;65.6
78448;SHT31;67742;51.972;5.682;2023-07-22T06:34:15;18.5;65.9
78448;SHT31;67742;51.972;5.682;2023-07-22T06:36:43;18.5;65.5
78448;SHT31;67742;51.972;5.682;2023-07-22T06:39:12;18.5;65.4
78448;SHT31;67742;51.972;5.682;2023-07-22T06:41:41;18.6;65.4
78448;SHT31;67742;51.972;5.682;2023-07-22T06:44:09;18.6;65.2
78448;SHT31;67742;51.972;5.682;2023-07-22T06:46:37;18.6;64.9
78448;SHT31;67742;51.972;5.682;2023-07-22T06:49:06;18.7;65.0
78448;SHT31;67742;51.972;5.682;2023-07-22T06:51:35;18.7;65.8
78448;SHT31;67742;51.972;5.682;2023-07-22T06:54:04;18.7;65.7
78448;SHT31;67742;51.972;5.682;2023-07-22T06:56:32;18.7;66.0
78448;SHT31;67742;51.972;5.682;2023-07-22T06:59:02;18.8;66.3
78448;SHT31;67742;51.972;5.682;2023-07-22T07:01:31;18.8;66.1
78448;SHT31;67742;51.972;5.682;2023-07-22T07:04:00;18.8;66.0
78448;SHT31;67742;51.972;5.682;2023-07-22T07:06:29;18.9;65.8
78448;SHT31;67742;51.972;5.682;2023-07-22T07:08:59;18.9;66.0
78448;SHT31;67742;51.972;5.682;2023-07-22T07:11:30;19.0;65.9
78448;SHT31;67742;51.972;5.682;2023-07-22T07:13:58;19.0;65.5
78448;SHT31;67742;51.972;5.682;2023-07-22T07:16:30;19.1;65.0
78448;SHT31;67742;51.972;5.682;2023-07-22T07:19:01;19.1;65.2
78448;SHT31;67742;51.972;5.682;2023-07-22T07:21:30;19.2;65.6
78448;SHT31;67742;51.972;5.682;2023-07-22T07:23:58;19.2;65.6
78448;SHT31;67742;51.972;5.682;2023-07-22T07:26:28;19.3;65.4
78448;SHT31;67742;51.972;5.682;2023-07-22T07:28:56;19.3;65.6
78448;SHT31;67742;51.972;5.682;2023-07-22T07:31:25;19.4;65.2
78448;SHT31;67742;51.972;5.682;2023-07-22T07:33:53;19.4;65.2
78448;SHT31;67742;51.972;5.682;2023-07-22T07:36:23;19.5;65.4
78448;SHT31;67742;51.972;5.682;2023-07-22T07:38:52;19.5;65.7
78448;SHT31;67742;51.972;5.682;2023-07-22T07:41:22;19.6;65.2
78448;SHT31;67742;51.972;5.682;2023-07-22T07:43:50;19.7;64.6
78448;SHT31;67742;51.972;5.682;2023-07-22T07:46:21;19.7;64.1
78448;SHT31;67742;51.972;5.682;2023-07-22T07:48:51;19.8;64.2
78448;SHT31;67742;51.972;5.682;2023-07-22T07:51:22;19.8;64.5
78448;SHT31;67742;51.972;5.682;2023-07-22T07:53:54;19.9;64.3
78448;SHT31;67742;51.972;5.682;2023-07-22T07:56:23;20.0;63.6
78448;SHT31;67742;51.972;5.682;2023-07-22T07:58:53;20.0;63.1
78448;SHT31;67742;51.972;5.682;2023-07-22T08:01:22;20.1;62.7
78448;SHT31;67742;51.972;5.682;2023-07-22T08:03:50;20.1;62.5
78448;SHT31;67742;51.972;5.682;2023-07-22T08:06:19;20.2;61.5
78448;SHT31;67742;51.972;5.682;2023-07-22T08:08:50;20.2;61.1
78448;SHT31;67742;51.972;5.682;2023-07-22T08:11:19;20.3;61.0
78448;SHT31;67742;51.972;5.682;2023-07-22T08:13:48;20.3;61.2
78448;SHT31;67742;51.972;5.682;2023-07-22T08:16:18;20.4;61.3
78448;SHT31;67742;51.972;5.682;2023-07-22T08:18:47;20.4;60.8
78448;SHT31;67742;51.972;5.682;2023-07-22T08:21:15;20.5;61.3
78448;SHT31;67742;51.972;5.682;2023-07-22T08:23:43;20.6;60.9
78448;SHT31;67742;51.972;5.682;2023-07-22T08:26:14;20.7;59.8
78448;SHT31;67742;51.972;5.682;2023-07-22T08:28:47;20.7;60.1
78448;SHT31;67742;51.972;5.682;2023-07-22T08:31:15;20.8;59.3
78448;SHT31;67742;51.972;5.682;2023-07-22T08:33:44;20.9;59.7
78448;SHT31;67742;51.972;5.682;2023-07-22T08:36:15;20.9;59.9
78448;SHT31;67742;51.972;5.682;2023-07-22T08:38:44;21.0;58.9
78448;SHT31;67742;51.972;5.682;2023-07-22T08:41:15;21.0;58.2
78448;SHT31;67742;51.972;5.682;2023-07-22T08:43:45;21.1;57.8
78448;SHT31;67742;51.972;5.682;2023-07-22T08:46:15;21.1;57.4
78448;SHT31;67742;51.972;5.682;2023-07-22T08:48:49;21.2;57.0
78448;SHT31;67742;51.972;5.682;2023-07-22T08:51:23;21.2;57.6
78448;SHT31;67742;51.972;5.682;2023-07-22T08:53:56;21.3;58.3
78448;SHT31;67742;51.972;5.682;2023-07-22T08:56:25;21.3;56.9
78448;SHT31;67742;51.972;5.682;2023-07-22T08:58:55;21.4;57.4
78448;SHT31;67742;51.972;5.682;2023-07-22T09:01:24;21.4;58.2
78448;SHT31;67742;51.972;5.682;2023-07-22T09:03:54;21.5;56.2
78448;SHT31;67742;51.972;5.682;2023-07-22T09:06:25;21.5;56.4
78448;SHT31;67742;51.972;5.682;2023-07-22T09:08:53;21.6;56.1
78448;SHT31;67742;51.972;5.682;2023-07-22T09:11:24;21.6;56.7
78448;SHT31;67742;51.972;5.682;2023-07-22T09:13:54;21.6;57.4
78448;SHT31;67742;51.972;5.682;2023-07-22T09:16:24;21.7;56.6
78448;SHT31;67742;51.972;5.682;2023-07-22T09:18:57;21.7;56.7
78448;SHT31;67742;51.972;5.682;2023-07-22T09:21:26;21.8;57.1
78448;SHT31;67742;51.972;5.682;2023-07-22T09:23:55;21.8;55.9
78448;SHT31;67742;51.972;5.682;2023-07-22T09:26:23;21.9;56.5
78448;SHT31;67742;51.972;5.682;2023-07-22T09:28:54;21.9;56.5
78448;SHT31;67742;51.972;5.682;2023-07-22T09:31:24;21.9;54.8
78448;SHT31;67742;51.972;5.682;2023-07-22T09:33:54;22.0;55.2
78448;SHT31;67742;51.972;5.682;2023-07-22T09:36:23;22.0;55.2
78448;SHT31;67742;51.972;5.682;2023-07-22T09:39:02;22.1;54.8
78448;SHT31;67742;51.972;5.682;2023-07-22T09:41:43;22.1;55.2
78448;SHT31;67742;51.972;5.682;2023-07-22T09:44:11;22.2;53.8
78448;SHT31;67742;51.972;5.682;2023-07-22T09:46:41;22.2;53.9
78448;SHT31;67742;51.972;5.682;2023-07-22T09:49:13;22.3;54.7
78448;SHT31;67742;51.972;5.682;2023-07-22T09:51:42;22.4;52.6
78448;SHT31;67742;51.972;5.682;2023-07-22T09:54:11;22.4;52.7
78448;SHT31;67742;51.972;5.682;2023-07-22T09:56:48;22.5;53.7
78448;SHT31;67742;51.972;5.682;2023-07-22T09:59:18;22.5;53.1
78448;SHT31;67742;51.972;5.682;2023-07-22T10:01:50;22.6;53.7
78448;SHT31;67742;51.972;5.682;2023-07-22T10:04:21;22.6;52.8
78448;SHT31;67742;51.972;5.682;2023-07-22T10:06:54;22.6;52.8
78448;SHT31;67742;51.972;5.682;2023-07-22T10:09:25;22.7;53.4
78448;SHT31;67742;51.972;5.682;2023-07-22T10:11:56;22.7;52.2
78448;SHT31;67742;51.972;5.682;2023-07-22T10:14:27;22.8;51.7
78448;SHT31;67742;51.972;5.682;2023-07-22T10:16:56;22.8;51.8
78448;SHT31;67742;51.972;5.682;2023-07-22T10:19:27;22.8;52.0
78448;SHT31;67742;51.972;5.682;2023-07-22T10:21:57;22.8;51.8
78448;SHT31;67742;51.972;5.682;2023-07-22T10:24:26;22.8;51.7
78448;SHT31;67742;51.972;5.682;2023-07-22T10:26:55;22.8;52.5
78448;SHT31;67742;51.972;5.682;2023-07-22T10:29:27;22.8;52.0
78448;SHT31;67742;51.972;5.682;2023-07-22T10:31:57;22.8;52.3
78448;SHT31;67742;51.972;5.682;2023-07-22T10:34:26;22.8;51.7
78448;SHT31;67742;51.972;5.682;2023-07-22T10:36:56;22.9;51.7
78448;SHT31;67742;51.972;5.682;2023-07-22T10:39:29;22.9;49.6
78448;SHT31;67742;51.972;5.682;2023-07-22T10:42:04;22.9;49.9
78448;SHT31;67742;51.972;5.682;2023-07-22T10:44:36;22.9;50.5
78448;SHT31;67742;51.972;5.682;2023-07-22T10:47:07;22.9;51.0
78448;SHT31;67742;51.972;5.682;2023-07-22T10:49:47;22.9;51.2
78448;SHT31;67742;51.972;5.682;2023-07-22T10:52:39;23.0;50.9
78448;SHT31;67742;51.972;5.682;2023-07-22T10:55:16;23.0;49.7
78448;SHT31;67742;51.972;5.682;2023-07-22T10:57:54;23.0;49.0
78448;SHT31;67742;51.972;5.682;2023-07-22T11:00:30;22.9;49.3
78448;SHT31;67742;51.972;5.682;2023-07-22T11:03:12;22.9;49.1
78448;SHT31;67742;51.972;5.682;2023-07-22T11:05:53;22.9;49.0
78448;SHT31;67742;51.972;5.682;2023-07-22T11:08:39;22.8;49.9
78448;SHT31;67742;51.972;5.682;2023-07-22T11:11:10;22.8;49.9
78448;SHT31;67742;51.972;5.682;2023-07-22T11:13:40;22.8;50.0
78448;SHT31;67742;51.972;5.682;2023-07-22T11:16:12;22.7;50.3
78448;SHT31;67742;51.972;5.682;2023-07-22T11:18:41;22.7;51.1
78448;SHT31;67742;51.972;5.682;2023-07-22T11:21:12;22.7;51.1
78448;SHT31;67742;51.972;5.682;2023-07-22T11:23:40;22.7;50.3
78448;SHT31;67742;51.972;5.682;2023-07-22T11:26:10;22.7;50.2
78448;SHT31;67742;51.972;5.682;2023-07-22T11:28:39;22.7;50.2
78448;SHT31;67742;51.972;5.682;2023-07-22T11:31:08;22.7;51.3
78448;SHT31;67742;51.972;5.682;2023-07-22T11:33:41;22.7;50.7
78448;SHT31;67742;51.972;5.682;2023-07-22T11:36:13;22.7;50.7
78448;SHT31;67742;51.972;5.682;2023-07-22T11:38:42;22.7;50.0
78448;SHT31;67742;51.972;5.682;2023-07-22T11:41:11;22.6;50.0
78448;SHT31;67742;51.972;5.682;2023-07-22T11:43:40;22.6;50.1
78448;SHT31;67742;51.972;5.682;2023-07-22T11:46:09;22.6;49.4
78448;SHT31;67742;51.972;5.682;2023-07-22T11:48:38;22.6;49.5
78448;SHT31;67742;51.972;5.682;2023-07-22T11:51:08;22.5;49.2
78448;SHT31;67742;51.972;5.682;2023-07-22T11:53:37;22.5;50.0
78448;SHT31;67742;51.972;5.682;2023-07-22T11:56:06;22.5;50.7
78448;SHT31;67742;51.972;5.682;2023-07-22T11:58:37;22.5;50.4
78448;SHT31;67742;51.972;5.682;2023-07-22T12:01:10;22.5;49.0
78448;SHT31;67742;51.972;5.682;2023-07-22T12:03:40;22.5;49.0
78448;SHT31;67742;51.972;5.682;2023-07-22T12:06:08;22.5;48.6
78448;SHT31;67742;51.972;5.682;2023-07-22T12:08:42;22.5;49.8
78448;SHT31;67742;51.972;5.682;2023-07-22T12:11:17;22.5;48.9
78448;SHT31;67742;51.972;5.682;2023-07-22T12:13:47;22.5;49.2
78448;SHT31;67742;51.972;5.682;2023-07-22T12:16:23;22.6;48.5
78448;SHT31;67742;51.972;5.682;2023-07-22T12:18:54;22.6;48.6
78448;SHT31;67742;51.972;5.682;2023-07-22T12:21:23;22.6;49.7
78448;SHT31;67742;51.972;5.682;2023-07-22T12:23:53;22.6;50.5
78448;SHT31;67742;51.972;5.682;2023-07-22T12:26:22;22.5;51.5
78448;SHT31;67742;51.972;5.682;2023-07-22T12:28:52;22.5;52.6
78448;SHT31;67742;51.972;5.682;2023-07-22T12:31:21;22.3;53.7
78448;SHT31;67742;51.972;5.682;2023-07-22T12:33:49;22.1;54.2
78448;SHT31;67742;51.972;5.682;2023-07-22T12:36:18;22.0;54.9
78448;SHT31;67742;51.972;5.682;2023-07-22T12:38:47;21.8;55.6
78448;SHT31;67742;51.972;5.682;2023-07-22T12:41:15;21.7;56.4
78448;SHT31;67742;51.972;5.682;2023-07-22T12:43:44;21.5;56.7
78448;SHT31;67742;51.972;5.682;2023-07-22T12:46:12;21.4;57.2
78448;SHT31;67742;51.972;5.682;2023-07-22T12:48:41;21.3;57.7
78448;SHT31;67742;51.972;5.682;2023-07-22T12:51:10;21.2;57.9
78448;SHT31;67742;51.972;5.682;2023-07-22T12:53:39;21.1;58.3
78448;SHT31;67742;51.972;5.682;2023-07-22T12:56:08;21.1;58.9
78448;SHT31;67742;51.972;5.682;2023-07-22T12:58:36;21.1;58.7
78448;SHT31;67742;51.972;5.682;2023-07-22T13:01:05;21.0;58.8
78448;SHT31;67742;51.972;5.682;2023-07-22T13:03:34;21.0;59.3
78448;SHT31;67742;51.972;5.682;2023-07-22T13:06:03;21.0;60.3
78448;SHT31;67742;51.972;5.682;2023-07-22T13:08:32;21.1;59.4
78448;SHT31;67742;51.972;5.682;2023-07-22T13:11:00;21.1;58.2
78448;SHT31;67742;51.972;5.682;2023-07-22T13:13:30;21.2;56.5
78448;SHT31;67742;51.972;5.682;2023-07-22T13:15:58;21.3;56.1
78448;SHT31;67742;51.972;5.682;2023-07-22T13:18:27;21.3;56.3
78448;SHT31;67742;51.972;5.682;2023-07-22T13:20:55;21.4;55.5
78448;SHT31;67742;51.972;5.682;2023-07-22T13:23:24;21.5;55.2
78448;SHT31;67742;51.972;5.682;2023-07-22T13:25:52;21.5;56.0
78448;SHT31;67742;51.972;5.682;2023-07-22T13:28:21;21.6;55.2
78448;SHT31;67742;51.972;5.682;2023-07-22T13:30:49;21.7;55.2
78448;SHT31;67742;51.972;5.682;2023-07-22T13:33:18;21.7;55.7
78448;SHT31;67742;51.972;5.682;2023-07-22T13:35:46;21.8;54.5
78448;SHT31;67742;51.972;5.682;2023-07-22T13:38:17;21.9;53.8
78448;SHT31;67742;51.972;5.682;2023-07-22T13:40:45;21.9;53.8
78448;SHT31;67742;51.972;5.682;2023-07-22T13:43:14;21.9;53.3
78448;SHT31;67742;51.972;5.682;2023-07-22T13:45:44;21.9;53.6
78448;SHT31;67742;51.972;5.682;2023-07-22T13:48:13;21.9;54.6
78448;SHT31;67742;51.972;5.682;2023-07-22T13:50:41;21.9;54.3
78448;SHT31;67742;51.972;5.682;2023-07-22T13:53:10;21.9;54.5
78448;SHT31;67742;51.972;5.682;2023-07-22T13:55:38;21.9;54.8
78448;SHT31;67742;51.972;5.682;2023-07-22T13:58:07;21.9;55.1
78448;SHT31;67742;51.972;5.682;2023-07-22T14:00:36;21.9;55.5
78448;SHT31;67742;51.972;5.682;2023-07-22T14:03:04;21.9;53.9
78448;SHT31;67742;51.972;5.682;2023-07-22T14:05:33;21.8;54.0
78448;SHT31;67742;51.972;5.682;2023-07-22T14:08:01;21.7;53.4
78448;SHT31;67742;51.972;5.682;2023-07-22T14:10:30;21.6;53.4
78448;SHT31;67742;51.972;5.682;2023-07-22T14:12:59;21.5;54.0
78448;SHT31;67742;51.972;5.682;2023-07-22T14:15:28;21.4;54.4
78448;SHT31;67742;51.972;5.682;2023-07-22T14:17:56;21.3;54.8
78448;SHT31;67742;51.972;5.682;2023-07-22T14:20:25;21.3;55.1
78448;SHT31;67742;51.972;5.682;2023-07-22T14:22:54;21.2;55.4
78448;SHT31;67742;51.972;5.682;2023-07-22T14:25:23;21.1;55.8
78448;SHT31;67742;51.972;5.682;2023-07-22T14:27:52;21.0;56.4
78448;SHT31;67742;51.972;5.682;2023-07-22T14:30:20;21.0;56.7
78448;SHT31;67742;51.972;5.682;2023-07-22T14:32:49;21.0;56.8
78448;SHT31;67742;51.972;5.682;2023-07-22T14:35:17;20.9;56.8
78448;SHT31;67742;51.972;5.682;2023-07-22T14:37:46;20.9;56.6
78448;SHT31;67742;51.972;5.682;2023-07-22T14:40:17;20.9;55.9
78448;SHT31;67742;51.972;5.682;2023-07-22T14:42:45;20.9;55.8
78448;SHT31;67742;51.972;5.682;2023-07-22T14:45:14;20.9;55.3
78448;SHT31;67742;51.972;5.682;2023-07-22T14:47:43;20.9;55.3
78448;SHT31;67742;51.972;5.682;2023-07-22T14:50:11;20.9;55.6
78448;SHT31;67742;51.972;5.682;2023-07-22T14:52:40;21.0;55.8
78448;SHT31;67742;51.972;5.682;2023-07-22T14:55:09;21.0;55.4
78448;SHT31;67742;51.972;5.682;2023-07-22T14:57:37;21.1;55.6
78448;SHT31;67742;51.972;5.682;2023-07-22T15:00:07;21.1;55.6
78448;SHT31;67742;51.972;5.682;2023-07-22T15:02:36;21.2;55.3
78448;SHT31;67742;51.972;5.682;2023-07-22T15:05:06;21.2;55.3
78448;SHT31;67742;51.972;5.682;2023-07-22T15:07:35;21.3;55.0
78448;SHT31;67742;51.972;5.682;2023-07-22T15:10:08;21.3;54.5
78448;SHT31;67742;51.972;5.682;2023-07-22T15:12:38;21.4;54.0
78448;SHT31;67742;51.972;5.682;2023-07-22T15:15:08;21.4;53.9
78448;SHT31;67742;51.972;5.682;2023-07-22T15:17:36;21.4;54.3
78448;SHT31;67742;51.972;5.682;2023-07-22T15:20:07;21.5;54.0
78448;SHT31;67742;51.972;5.682;2023-07-22T15:22:36;21.5;54.0
78448;SHT31;67742;51.972;5.682;2023-07-22T15:25:05;21.5;54.1
78448;SHT31;67742;51.972;5.682;2023-07-22T15:27:34;21.5;54.0
78448;SHT31;67742;51.972;5.682;2023-07-22T15:30:03;21.6;53.7
78448;SHT31;67742;51.972;5.682;2023-07-22T15:32:32;21.6;53.5
78448;SHT31;67742;51.972;5.682;2023-07-22T15:35:00;21.6;53.4
78448;SHT31;67742;51.972;5.682;2023-07-22T15:37:29;21.6;53.4
78448;SHT31;67742;51.972;5.682;2023-07-22T15:39:58;21.6;53.5
78448;SHT31;67742;51.972;5.682;2023-07-22T15:42:26;21.6;53.4
78448;SHT31;67742;51.972;5.682;2023-07-22T15:44:55;21.6;53.6
78448;SHT31;67742;51.972;5.682;2023-07-22T15:47:23;21.6;53.9
78448;SHT31;67742;51.972;5.682;2023-07-22T15:49:54;21.6;53.8
78448;SHT31;67742;51.972;5.682;2023-07-22T15:52:23;21.7;53.6
78448;SHT31;67742;51.972;5.682;2023-07-22T15:54:51;21.7;53.6
78448;SHT31;67742;51.972;5.682;2023-07-22T15:57:20;21.7;53.8
78448;SHT31;67742;51.972;5.682;2023-07-22T15:59:48;21.7;54.1
78448;SHT31;67742;51.972;5.682;2023-07-22T16:02:17;21.7;53.8
78448;SHT31;67742;51.972;5.682;2023-07-22T16:04:46;21.7;53.5
78448;SHT31;67742;51.972;5.682;2023-07-22T16:07:14;21.7;53.4
78448;SHT31;67742;51.972;5.682;2023-07-22T16:09:43;21.7;53.7
78448;SHT31;67742;51.972;5.682;2023-07-22T16:12:12;21.8;54.0
78448;SHT31;67742;51.972;5.682;2023-07-22T16:14:40;21.8;53.6
78448;SHT31;67742;51.972;5.682;2023-07-22T16:17:09;21.8;53.4